Olen, Belgium
Current Conditions -  °F | °C
As of 2:25 PM on Tuesday 21 Oct 2014 (Local Time) from EBDT Reporting Station
Broken Clouds Broken Clouds  
Wind Chill: 57°   Ceiling: 2000
Heat Index: 57°   Visibility: 4mi
Dew Point: 54°   Wind: 14mph
Humidity: 88%   Direction: 210°SSW
Pressure: 29.53"   Gusts: 25mph
Location:  51.14°N, 4.86°E
Report Text: EBDT 211225Z 21012G22KT 7000 FEW014 BKN020 14/12 Q1000 WHT
Loading
Personal Weather Stations






























Interactive Weather Map
Tropical Storm Tracking
New forecast layout! Learn more

10-Day Weather Forecast

Advertisements
Track Severe Weather on mobile